sensor_id;sensor_type;location;lat;lon;timestamp;temperature;humidity
9790;DHT22;4934;50.852;8.098;2022-07-03T00:01:58;14.00;99.90
9790;DHT22;4934;50.852;8.098;2022-07-03T00:04:23;13.90;99.90
9790;DHT22;4934;50.852;8.098;2022-07-03T00:06:49;13.90;99.90
9790;DHT22;4934;50.852;8.098;2022-07-03T00:09:15;13.90;99.90
9790;DHT22;4934;50.852;8.098;2022-07-03T00:11:40;13.90;99.90
9790;DHT22;4934;50.852;8.098;2022-07-03T00:14:06;13.90;99.90
9790;DHT22;4934;50.852;8.098;2022-07-03T00:16:32;13.80;99.90
9790;DHT22;4934;50.852;8.098;2022-07-03T00:18:57;13.80;99.90
9790;DHT22;4934;50.852;8.098;2022-07-03T00:21:35;13.80;99.90
9790;DHT22;4934;50.852;8.098;2022-07-03T00:24:21;13.80;99.90
9790;DHT22;4934;50.852;8.098;2022-07-03T00:26:51;13.80;99.90
9790;DHT22;4934;50.852;8.098;2022-07-03T00:29:21;13.70;99.90
9790;DHT22;4934;50.852;8.098;2022-07-03T00:31:48;13.70;99.90
9790;DHT22;4934;50.852;8.098;2022-07-03T00:34:15;13.70;99.90
9790;DHT22;4934;50.852;8.098;2022-07-03T00:36:42;13.70;99.90
9790;DHT22;4934;50.852;8.098;2022-07-03T00:39:08;13.60;99.90
9790;DHT22;4934;50.852;8.098;2022-07-03T00:41:35;13.60;99.90
9790;DHT22;4934;50.852;8.098;2022-07-03T00:44:02;13.70;99.90
9790;DHT22;4934;50.852;8.098;2022-07-03T00:46:28;13.70;99.90
9790;DHT22;4934;50.852;8.098;2022-07-03T00:48:56;13.70;99.90
9790;DHT22;4934;50.852;8.098;2022-07-03T00:51:26;13.70;99.90
9790;DHT22;4934;50.852;8.098;2022-07-03T00:53:57;13.70;99.90
9790;DHT22;4934;50.852;8.098;2022-07-03T00:56:28;13.60;99.90
9790;DHT22;4934;50.852;8.098;2022-07-03T00:58:57;13.50;99.90
9790;DHT22;4934;50.852;8.098;2022-07-03T01:01:32;13.40;99.90
9790;DHT22;4934;50.852;8.098;2022-07-03T01:07:06;13.20;99.90
9790;DHT22;4934;50.852;8.098;2022-07-03T01:09:50;13.10;99.90
9790;DHT22;4934;50.852;8.098;2022-07-03T01:12:32;13.10;99.90
9790;DHT22;4934;50.852;8.098;2022-07-03T01:15:12;13.10;99.90
9790;DHT22;4934;50.852;8.098;2022-07-03T01:17:51;13.00;99.90
9790;DHT22;4934;50.852;8.098;2022-07-03T01:20:25;13.00;99.90
9790;DHT22;4934;50.852;8.098;2022-07-03T01:22:57;12.90;99.90
9790;DHT22;4934;50.852;8.098;2022-07-03T01:25:25;13.10;99.90
9790;DHT22;4934;50.852;8.098;2022-07-03T01:30:31;13.00;99.90
9790;DHT22;4934;50.852;8.098;2022-07-03T01:33:04;12.90;99.90
9790;DHT22;4934;50.852;8.098;2022-07-03T01:35:36;12.80;99.90
9790;DHT22;4934;50.852;8.098;2022-07-03T01:38:12;12.80;99.90
9790;DHT22;4934;50.852;8.098;2022-07-03T01:40:40;12.70;99.90
9790;DHT22;4934;50.852;8.098;2022-07-03T01:43:11;12.70;99.90
9790;DHT22;4934;50.852;8.098;2022-07-03T01:45:47;12.60;99.90
9790;DHT22;4934;50.852;8.098;2022-07-03T01:48:14;12.60;99.90
9790;DHT22;4934;50.852;8.098;2022-07-03T01:50:41;12.50;99.90
9790;DHT22;4934;50.852;8.098;2022-07-03T01:53:09;12.50;99.90
9790;DHT22;4934;50.852;8.098;2022-07-03T01:55:39;12.50;99.90
9790;DHT22;4934;50.852;8.098;2022-07-03T01:58:05;12.50;99.90
9790;DHT22;4934;50.852;8.098;2022-07-03T02:00:40;12.50;99.90
9790;DHT22;4934;50.852;8.098;2022-07-03T02:03:06;12.40;99.90
9790;DHT22;4934;50.852;8.098;2022-07-03T02:08:15;12.40;99.90
9790;DHT22;4934;50.852;8.098;2022-07-03T02:10:47;12.30;99.90
9790;DHT22;4934;50.852;8.098;2022-07-03T02:13:22;12.30;99.90
9790;DHT22;4934;50.852;8.098;2022-07-03T02:15:50;12.30;99.90
9790;DHT22;4934;50.852;8.098;2022-07-03T02:18:26;12.30;99.90
9790;DHT22;4934;50.852;8.098;2022-07-03T02:21:13;12.30;99.90
9790;DHT22;4934;50.852;8.098;2022-07-03T02:26:17;12.20;99.90
9790;DHT22;4934;50.852;8.098;2022-07-03T02:31:27;12.20;99.90
9790;DHT22;4934;50.852;8.098;2022-07-03T02:33:57;12.20;99.90
9790;DHT22;4934;50.852;8.098;2022-07-03T02:36:27;12.10;99.90
9790;DHT22;4934;50.852;8.098;2022-07-03T02:38:54;12.00;99.90
9790;DHT22;4934;50.852;8.098;2022-07-03T02:41:29;12.00;99.90
9790;DHT22;4934;50.852;8.098;2022-07-03T02:44:04;12.00;99.90
9790;DHT22;4934;50.852;8.098;2022-07-03T02:50:03;12.10;99.90
9790;DHT22;4934;50.852;8.098;2022-07-03T02:52:34;12.00;99.90
9790;DHT22;4934;50.852;8.098;2022-07-03T03:03:31;11.80;99.90
9790;DHT22;4934;50.852;8.098;2022-07-03T03:06:14;11.80;99.90
9790;DHT22;4934;50.852;8.098;2022-07-03T03:08:48;11.70;99.90
9790;DHT22;4934;50.852;8.098;2022-07-03T03:11:24;11.70;99.90
9790;DHT22;4934;50.852;8.098;2022-07-03T03:13:56;11.70;99.90
9790;DHT22;4934;50.852;8.098;2022-07-03T03:16:23;11.70;99.90
9790;DHT22;4934;50.852;8.098;2022-07-03T03:18:49;11.70;99.90
9790;DHT22;4934;50.852;8.098;2022-07-03T03:21:18;11.70;99.90
9790;DHT22;4934;50.852;8.098;2022-07-03T03:23:45;11.70;99.90
9790;DHT22;4934;50.852;8.098;2022-07-03T03:26:15;11.70;99.90
9790;DHT22;4934;50.852;8.098;2022-07-03T03:28:42;11.70;99.90
9790;DHT22;4934;50.852;8.098;2022-07-03T03:31:08;11.70;99.90
9790;DHT22;4934;50.852;8.098;2022-07-03T03:33:43;11.70;99.90
9790;DHT22;4934;50.852;8.098;2022-07-03T03:36:11;11.70;99.90
9790;DHT22;4934;50.852;8.098;2022-07-03T03:38:39;11.70;99.90
9790;DHT22;4934;50.852;8.098;2022-07-03T03:41:05;11.70;99.90
9790;DHT22;4934;50.852;8.098;2022-07-03T03:43:31;11.70;99.90
9790;DHT22;4934;50.852;8.098;2022-07-03T03:45:58;11.70;99.90
9790;DHT22;4934;50.852;8.098;2022-07-03T03:48:26;11.70;99.90
9790;DHT22;4934;50.852;8.098;2022-07-03T03:50:51;11.90;99.90
9790;DHT22;4934;50.852;8.098;2022-07-03T03:53:18;12.40;99.90
9790;DHT22;4934;50.852;8.098;2022-07-03T03:58:27;13.40;99.90
9790;DHT22;4934;50.852;8.098;2022-07-03T04:00:55;13.80;99.90
9790;DHT22;4934;50.852;8.098;2022-07-03T04:03:21;14.10;99.90
9790;DHT22;4934;50.852;8.098;2022-07-03T04:05:46;14.20;99.90
9790;DHT22;4934;50.852;8.098;2022-07-03T04:08:12;14.60;99.90
9790;DHT22;4934;50.852;8.098;2022-07-03T04:10:38;15.10;99.90
9790;DHT22;4934;50.852;8.098;2022-07-03T04:13:04;15.50;99.90
9790;DHT22;4934;50.852;8.098;2022-07-03T04:15:30;16.00;99.90
9790;DHT22;4934;50.852;8.098;2022-07-03T04:17:55;16.40;99.90
9790;DHT22;4934;50.852;8.098;2022-07-03T04:20:21;16.70;99.90
9790;DHT22;4934;50.852;8.098;2022-07-03T04:22:46;17.00;99.90
9790;DHT22;4934;50.852;8.098;2022-07-03T04:25:13;16.90;99.90
9790;DHT22;4934;50.852;8.098;2022-07-03T04:27:39;16.60;99.90
9790;DHT22;4934;50.852;8.098;2022-07-03T04:30:05;16.30;99.90
9790;DHT22;4934;50.852;8.098;2022-07-03T04:32:35;16.10;99.90
9790;DHT22;4934;50.852;8.098;2022-07-03T04:35:00;15.80;99.90
9790;DHT22;4934;50.852;8.098;2022-07-03T04:37:26;15.60;99.90
9790;DHT22;4934;50.852;8.098;2022-07-03T04:39:52;15.40;99.90
9790;DHT22;4934;50.852;8.098;2022-07-03T04:42:17;15.20;99.90
9790;DHT22;4934;50.852;8.098;2022-07-03T04:44:43;15.10;99.90
9790;DHT22;4934;50.852;8.098;2022-07-03T04:47:09;15.30;99.90
9790;DHT22;4934;50.852;8.098;2022-07-03T04:49:34;15.50;99.90
9790;DHT22;4934;50.852;8.098;2022-07-03T04:52:00;15.60;99.90
9790;DHT22;4934;50.852;8.098;2022-07-03T04:54:26;15.20;99.90
9790;DHT22;4934;50.852;8.098;2022-07-03T04:56:51;15.10;99.90
9790;DHT22;4934;50.852;8.098;2022-07-03T04:59:17;15.20;99.90
9790;DHT22;4934;50.852;8.098;2022-07-03T05:01:42;15.20;99.90
9790;DHT22;4934;50.852;8.098;2022-07-03T05:04:08;15.30;99.90
9790;DHT22;4934;50.852;8.098;2022-07-03T05:06:33;15.30;99.90
9790;DHT22;4934;50.852;8.098;2022-07-03T05:08:59;15.40;99.90
9790;DHT22;4934;50.852;8.098;2022-07-03T05:11:25;15.30;99.90
9790;DHT22;4934;50.852;8.098;2022-07-03T05:13:50;15.30;99.90
9790;DHT22;4934;50.852;8.098;2022-07-03T05:16:16;15.40;99.90
9790;DHT22;4934;50.852;8.098;2022-07-03T05:18:41;15.50;99.90
9790;DHT22;4934;50.852;8.098;2022-07-03T05:21:07;15.50;99.90
9790;DHT22;4934;50.852;8.098;2022-07-03T05:23:32;15.50;99.90
9790;DHT22;4934;50.852;8.098;2022-07-03T05:25:58;15.60;99.90
9790;DHT22;4934;50.852;8.098;2022-07-03T05:28:24;15.60;99.90
9790;DHT22;4934;50.852;8.098;2022-07-03T05:30:50;15.70;99.90
9790;DHT22;4934;50.852;8.098;2022-07-03T05:33:16;15.60;99.90
9790;DHT22;4934;50.852;8.098;2022-07-03T05:35:41;15.70;99.90
9790;DHT22;4934;50.852;8.098;2022-07-03T05:38:07;15.70;99.90
9790;DHT22;4934;50.852;8.098;2022-07-03T05:40:32;15.70;99.90
9790;DHT22;4934;50.852;8.098;2022-07-03T05:42:58;15.80;99.90
9790;DHT22;4934;50.852;8.098;2022-07-03T05:45:23;16.00;99.90
9790;DHT22;4934;50.852;8.098;2022-07-03T05:47:49;16.10;99.90
9790;DHT22;4934;50.852;8.098;2022-07-03T05:50:15;16.30;99.90
9790;DHT22;4934;50.852;8.098;2022-07-03T05:52:40;16.40;99.90
9790;DHT22;4934;50.852;8.098;2022-07-03T05:55:06;16.60;99.90
9790;DHT22;4934;50.852;8.098;2022-07-03T05:57:32;16.80;99.90
9790;DHT22;4934;50.852;8.098;2022-07-03T05:59:57;17.00;99.90
9790;DHT22;4934;50.852;8.098;2022-07-03T06:02:23;17.10;99.90
9790;DHT22;4934;50.852;8.098;2022-07-03T06:04:49;16.90;99.90
9790;DHT22;4934;50.852;8.098;2022-07-03T06:07:14;17.10;99.90
9790;DHT22;4934;50.852;8.098;2022-07-03T06:09:42;17.20;99.90
9790;DHT22;4934;50.852;8.098;2022-07-03T06:12:09;17.40;99.90
9790;DHT22;4934;50.852;8.098;2022-07-03T06:14:35;17.50;99.90
9790;DHT22;4934;50.852;8.098;2022-07-03T06:17:01;17.50;99.90
9790;DHT22;4934;50.852;8.098;2022-07-03T06:19:26;17.80;99.90
9790;DHT22;4934;50.852;8.098;2022-07-03T06:21:52;18.00;99.90
9790;DHT22;4934;50.852;8.098;2022-07-03T06:24:17;18.20;99.90
9790;DHT22;4934;50.852;8.098;2022-07-03T06:26:43;18.40;99.90
9790;DHT22;4934;50.852;8.098;2022-07-03T06:29:08;18.50;99.90
9790;DHT22;4934;50.852;8.098;2022-07-03T06:31:34;18.70;99.90
9790;DHT22;4934;50.852;8.098;2022-07-03T06:33:59;18.90;99.90
9790;DHT22;4934;50.852;8.098;2022-07-03T06:36:25;19.10;99.90
9790;DHT22;4934;50.852;8.098;2022-07-03T06:38:52;19.20;99.90
9790;DHT22;4934;50.852;8.098;2022-07-03T06:41:17;19.00;99.90
9790;DHT22;4934;50.852;8.098;2022-07-03T06:43:43;19.00;99.90
9790;DHT22;4934;50.852;8.098;2022-07-03T06:46:08;19.40;99.90
9790;DHT22;4934;50.852;8.098;2022-07-03T06:48:34;19.60;99.90
9790;DHT22;4934;50.852;8.098;2022-07-03T06:50:59;19.70;99.90
9790;DHT22;4934;50.852;8.098;2022-07-03T06:53:26;20.00;99.90
9790;DHT22;4934;50.852;8.098;2022-07-03T06:55:52;20.00;99.90
9790;DHT22;4934;50.852;8.098;2022-07-03T06:58:17;20.30;99.90
9790;DHT22;4934;50.852;8.098;2022-07-03T07:00:43;20.60;99.90
9790;DHT22;4934;50.852;8.098;2022-07-03T07:03:08;20.80;99.90
9790;DHT22;4934;50.852;8.098;2022-07-03T07:05:34;21.00;99.90
9790;DHT22;4934;50.852;8.098;2022-07-03T07:07:59;21.30;99.90
9790;DHT22;4934;50.852;8.098;2022-07-03T07:10:25;21.40;99.90
9790;DHT22;4934;50.852;8.098;2022-07-03T07:12:51;21.40;99.90
9790;DHT22;4934;50.852;8.098;2022-07-03T07:15:16;21.20;99.90
9790;DHT22;4934;50.852;8.098;2022-07-03T07:17:42;21.20;99.90
9790;DHT22;4934;50.852;8.098;2022-07-03T07:20:08;21.30;99.90
9790;DHT22;4934;50.852;8.098;2022-07-03T07:22:34;21.60;99.90
9790;DHT22;4934;50.852;8.098;2022-07-03T07:25:00;21.50;99.90
9790;DHT22;4934;50.852;8.098;2022-07-03T07:27:26;21.80;99.90
9790;DHT22;4934;50.852;8.098;2022-07-03T07:29:51;22.00;99.90
9790;DHT22;4934;50.852;8.098;2022-07-03T07:32:17;22.10;99.90
9790;DHT22;4934;50.852;8.098;2022-07-03T07:34:43;22.00;99.90
9790;DHT22;4934;50.852;8.098;2022-07-03T07:37:08;22.20;99.90
9790;DHT22;4934;50.852;8.098;2022-07-03T07:39:34;22.40;99.90
9790;DHT22;4934;50.852;8.098;2022-07-03T07:42:00;22.50;99.90
9790;DHT22;4934;50.852;8.098;2022-07-03T07:44:25;22.40;99.90
9790;DHT22;4934;50.852;8.098;2022-07-03T07:46:51;22.50;99.90
9790;DHT22;4934;50.852;8.098;2022-07-03T07:49:16;22.40;99.90
9790;DHT22;4934;50.852;8.098;2022-07-03T07:51:42;22.40;99.90
9790;DHT22;4934;50.852;8.098;2022-07-03T07:54:08;22.10;99.90
9790;DHT22;4934;50.852;8.098;2022-07-03T07:56:33;22.10;99.90
9790;DHT22;4934;50.852;8.098;2022-07-03T07:58:59;22.40;99.90
9790;DHT22;4934;50.852;8.098;2022-07-03T08:01:25;22.50;99.90
9790;DHT22;4934;50.852;8.098;2022-07-03T08:04:10;22.60;99.90
9790;DHT22;4934;50.852;8.098;2022-07-03T08:07:00;22.90;99.90
9790;DHT22;4934;50.852;8.098;2022-07-03T08:09:26;23.00;99.90
9790;DHT22;4934;50.852;8.098;2022-07-03T08:11:51;23.00;99.90
9790;DHT22;4934;50.852;8.098;2022-07-03T08:14:17;23.10;99.90
9790;DHT22;4934;50.852;8.098;2022-07-03T08:16:43;23.20;99.90
9790;DHT22;4934;50.852;8.098;2022-07-03T08:19:10;23.50;99.90
9790;DHT22;4934;50.852;8.098;2022-07-03T08:21:36;23.60;99.90
9790;DHT22;4934;50.852;8.098;2022-07-03T08:24:01;23.80;99.90
9790;DHT22;4934;50.852;8.098;2022-07-03T08:26:27;23.90;99.90
9790;DHT22;4934;50.852;8.098;2022-07-03T08:28:53;24.20;99.90
9790;DHT22;4934;50.852;8.098;2022-07-03T08:31:18;24.50;99.90
9790;DHT22;4934;50.852;8.098;2022-07-03T08:33:44;24.20;99.90
9790;DHT22;4934;50.852;8.098;2022-07-03T08:36:09;24.30;99.90
9790;DHT22;4934;50.852;8.098;2022-07-03T08:38:36;24.40;99.90
9790;DHT22;4934;50.852;8.098;2022-07-03T08:41:03;23.90;99.90
9790;DHT22;4934;50.852;8.098;2022-07-03T08:43:29;24.40;99.90
9790;DHT22;4934;50.852;8.098;2022-07-03T08:45:56;24.70;99.90
9790;DHT22;4934;50.852;8.098;2022-07-03T08:48:22;24.50;99.90
9790;DHT22;4934;50.852;8.098;2022-07-03T08:50:50;24.60;99.90
9790;DHT22;4934;50.852;8.098;2022-07-03T08:53:17;24.50;99.90
9790;DHT22;4934;50.852;8.098;2022-07-03T08:55:44;24.80;99.90
9790;DHT22;4934;50.852;8.098;2022-07-03T08:58:13;24.80;99.90
9790;DHT22;4934;50.852;8.098;2022-07-03T09:00:40;24.80;99.90
9790;DHT22;4934;50.852;8.098;2022-07-03T09:03:09;24.60;99.90
9790;DHT22;4934;50.852;8.098;2022-07-03T09:05:37;24.80;99.90
9790;DHT22;4934;50.852;8.098;2022-07-03T09:08:06;25.00;99.90
9790;DHT22;4934;50.852;8.098;2022-07-03T09:10:33;24.80;99.90
9790;DHT22;4934;50.852;8.098;2022-07-03T09:12:59;24.70;99.90
9790;DHT22;4934;50.852;8.098;2022-07-03T09:15:24;24.80;99.90
9790;DHT22;4934;50.852;8.098;2022-07-03T09:18:00;24.60;99.90
9790;DHT22;4934;50.852;8.098;2022-07-03T09:20:32;24.60;99.90
9790;DHT22;4934;50.852;8.098;2022-07-03T09:23:17;24.80;99.90
9790;DHT22;4934;50.852;8.098;2022-07-03T09:25:58;24.80;99.90
9790;DHT22;4934;50.852;8.098;2022-07-03T09:31:10;25.30;99.90
9790;DHT22;4934;50.852;8.098;2022-07-03T09:34:00;25.50;99.90
9790;DHT22;4934;50.852;8.098;2022-07-03T09:36:46;26.00;99.90
9790;DHT22;4934;50.852;8.098;2022-07-03T09:39:24;26.30;99.90
9790;DHT22;4934;50.852;8.098;2022-07-03T09:42:01;26.40;99.90
9790;DHT22;4934;50.852;8.098;2022-07-03T09:47:22;25.80;99.90
9790;DHT22;4934;50.852;8.098;2022-07-03T09:49:54;26.10;99.90
9790;DHT22;4934;50.852;8.098;2022-07-03T09:55:21;25.90;99.90
9790;DHT22;4934;50.852;8.098;2022-07-03T10:00:19;26.00;99.90
9790;DHT22;4934;50.852;8.098;2022-07-03T10:03:05;25.90;99.90
9790;DHT22;4934;50.852;8.098;2022-07-03T10:05:40;25.90;99.90
9790;DHT22;4934;50.852;8.098;2022-07-03T10:10:34;25.40;99.90
9790;DHT22;4934;50.852;8.098;2022-07-03T10:13:01;25.00;99.90
9790;DHT22;4934;50.852;8.098;2022-07-03T10:15:33;25.00;99.90
9790;DHT22;4934;50.852;8.098;2022-07-03T10:18:04;25.40;99.90
9790;DHT22;4934;50.852;8.098;2022-07-03T10:20:56;25.90;99.90
9790;DHT22;4934;50.852;8.098;2022-07-03T10:23:22;26.10;99.90
9790;DHT22;4934;50.852;8.098;2022-07-03T10:25:49;26.80;99.90
9790;DHT22;4934;50.852;8.098;2022-07-03T10:28:19;27.30;99.90
9790;DHT22;4934;50.852;8.098;2022-07-03T10:30:46;27.70;99.90
9790;DHT22;4934;50.852;8.098;2022-07-03T10:33:12;28.00;99.90
9790;DHT22;4934;50.852;8.098;2022-07-03T10:35:40;28.20;98.20
9790;DHT22;4934;50.852;8.098;2022-07-03T10:38:18;28.50;97.40
9790;DHT22;4934;50.852;8.098;2022-07-03T10:43:46;29.10;96.50
9790;DHT22;4934;50.852;8.098;2022-07-03T10:46:32;28.80;92.60
9790;DHT22;4934;50.852;8.098;2022-07-03T10:51:55;28.20;92.40
9790;DHT22;4934;50.852;8.098;2022-07-03T10:54:28;28.20;91.40
9790;DHT22;4934;50.852;8.098;2022-07-03T11:07:33;27.90;88.00
9790;DHT22;4934;50.852;8.098;2022-07-03T11:12:59;27.80;89.60
9790;DHT22;4934;50.852;8.098;2022-07-03T11:15:34;27.90;84.50
9790;DHT22;4934;50.852;8.098;2022-07-03T11:18:25;27.40;87.00
9790;DHT22;4934;50.852;8.098;2022-07-03T11:26:00;27.90;84.20
9790;DHT22;4934;50.852;8.098;2022-07-03T11:34:00;28.40;83.20
9790;DHT22;4934;50.852;8.098;2022-07-03T11:36:29;28.80;89.60
9790;DHT22;4934;50.852;8.098;2022-07-03T11:41:27;28.70;80.50
9790;DHT22;4934;50.852;8.098;2022-07-03T11:43:59;28.40;75.20
9790;DHT22;4934;50.852;8.098;2022-07-03T11:46:26;28.20;77.50
9790;DHT22;4934;50.852;8.098;2022-07-03T11:51:30;27.10;80.30
9790;DHT22;4934;50.852;8.098;2022-07-03T11:53:56;27.20;81.30
9790;DHT22;4934;50.852;8.098;2022-07-03T11:56:21;27.10;75.00
9790;DHT22;4934;50.852;8.098;2022-07-03T11:58:52;27.60;77.40
9790;DHT22;4934;50.852;8.098;2022-07-03T12:03:54;28.00;79.90
9790;DHT22;4934;50.852;8.098;2022-07-03T12:06:26;28.30;79.40
9790;DHT22;4934;50.852;8.098;2022-07-03T12:08:58;28.60;77.90
9790;DHT22;4934;50.852;8.098;2022-07-03T12:11:23;28.70;75.70
9790;DHT22;4934;50.852;8.098;2022-07-03T12:13:49;28.60;72.10
9790;DHT22;4934;50.852;8.098;2022-07-03T12:16:18;28.90;82.80
9790;DHT22;4934;50.852;8.098;2022-07-03T12:18:51;29.20;84.40
9790;DHT22;4934;50.852;8.098;2022-07-03T12:21:18;29.40;75.20
9790;DHT22;4934;50.852;8.098;2022-07-03T12:23:53;29.80;75.50
9790;DHT22;4934;50.852;8.098;2022-07-03T12:26:48;30.10;78.60
9790;DHT22;4934;50.852;8.098;2022-07-03T12:29:15;30.50;79.40
9790;DHT22;4934;50.852;8.098;2022-07-03T12:31:45;30.80;82.90
9790;DHT22;4934;50.852;8.098;2022-07-03T12:34:12;30.80;76.90
9790;DHT22;4934;50.852;8.098;2022-07-03T12:36:39;31.10;80.60
9790;DHT22;4934;50.852;8.098;2022-07-03T12:39:04;31.20;80.70
9790;DHT22;4934;50.852;8.098;2022-07-03T12:41:30;31.20;77.60
9790;DHT22;4934;50.852;8.098;2022-07-03T12:43:58;31.00;74.90
9790;DHT22;4934;50.852;8.098;2022-07-03T12:46:35;30.90;73.50
9790;DHT22;4934;50.852;8.098;2022-07-03T12:59:23;30.00;71.00
9790;DHT22;4934;50.852;8.098;2022-07-03T13:02:05;30.30;72.50
9790;DHT22;4934;50.852;8.098;2022-07-03T13:04:35;30.00;68.80
9790;DHT22;4934;50.852;8.098;2022-07-03T13:07:07;29.80;67.40
9790;DHT22;4934;50.852;8.098;2022-07-03T13:09:35;29.80;71.80
9790;DHT22;4934;50.852;8.098;2022-07-03T13:12:01;29.30;68.80
9790;DHT22;4934;50.852;8.098;2022-07-03T13:14:27;29.20;72.20
9790;DHT22;4934;50.852;8.098;2022-07-03T13:16:55;29.40;76.70
9790;DHT22;4934;50.852;8.098;2022-07-03T13:19:24;29.60;79.20
9790;DHT22;4934;50.852;8.098;2022-07-03T13:21:52;29.90;81.00
9790;DHT22;4934;50.852;8.098;2022-07-03T13:24:19;30.00;72.70
9790;DHT22;4934;50.852;8.098;2022-07-03T13:26:46;30.40;73.30
9790;DHT22;4934;50.852;8.098;2022-07-03T13:29:12;30.40;74.50
9790;DHT22;4934;50.852;8.098;2022-07-03T13:31:38;30.40;70.80
9790;DHT22;4934;50.852;8.098;2022-07-03T13:34:04;29.90;73.90
9790;DHT22;4934;50.852;8.098;2022-07-03T13:36:30;29.90;74.50
9790;DHT22;4934;50.852;8.098;2022-07-03T13:38:56;29.80;76.20
9790;DHT22;4934;50.852;8.098;2022-07-03T13:41:22;30.00;80.00
9790;DHT22;4934;50.852;8.098;2022-07-03T13:43:49;30.00;78.90
9790;DHT22;4934;50.852;8.098;2022-07-03T13:46:16;29.90;73.60
9790;DHT22;4934;50.852;8.098;2022-07-03T13:48:42;29.50;73.80
9790;DHT22;4934;50.852;8.098;2022-07-03T13:51:08;29.20;72.30
9790;DHT22;4934;50.852;8.098;2022-07-03T13:53:34;29.00;71.80
9790;DHT22;4934;50.852;8.098;2022-07-03T13:56:00;28.40;74.10
9790;DHT22;4934;50.852;8.098;2022-07-03T13:58:26;28.80;73.50
9790;DHT22;4934;50.852;8.098;2022-07-03T14:00:53;28.90;73.10
9790;DHT22;4934;50.852;8.098;2022-07-03T14:03:18;28.90;72.70
9790;DHT22;4934;50.852;8.098;2022-07-03T14:05:44;29.10;71.90
9790;DHT22;4934;50.852;8.098;2022-07-03T14:08:10;28.80;72.50
9790;DHT22;4934;50.852;8.098;2022-07-03T14:10:37;29.00;76.10
9790;DHT22;4934;50.852;8.098;2022-07-03T14:13:03;29.10;77.90
9790;DHT22;4934;50.852;8.098;2022-07-03T14:15:28;29.00;76.50
9790;DHT22;4934;50.852;8.098;2022-07-03T14:17:54;29.10;77.30
9790;DHT22;4934;50.852;8.098;2022-07-03T14:20:19;29.10;76.10
9790;DHT22;4934;50.852;8.098;2022-07-03T14:22:45;28.50;73.00
9790;DHT22;4934;50.852;8.098;2022-07-03T14:25:11;28.30;74.50
9790;DHT22;4934;50.852;8.098;2022-07-03T14:27:36;28.40;75.90
9790;DHT22;4934;50.852;8.098;2022-07-03T14:30:21;28.60;76.90
9790;DHT22;4934;50.852;8.098;2022-07-03T14:33:05;28.00;76.90
9790;DHT22;4934;50.852;8.098;2022-07-03T14:35:31;28.50;75.80
9790;DHT22;4934;50.852;8.098;2022-07-03T14:37:56;28.20;76.10
9790;DHT22;4934;50.852;8.098;2022-07-03T14:40:22;28.70;81.30
9790;DHT22;4934;50.852;8.098;2022-07-03T14:42:47;29.10;80.70
9790;DHT22;4934;50.852;8.098;2022-07-03T14:45:13;29.20;79.10
9790;DHT22;4934;50.852;8.098;2022-07-03T14:47:39;29.20;79.70
9790;DHT22;4934;50.852;8.098;2022-07-03T14:50:04;29.40;76.20
9790;DHT22;4934;50.852;8.098;2022-07-03T14:52:30;29.60;76.50
9790;DHT22;4934;50.852;8.098;2022-07-03T14:54:56;29.70;75.50
9790;DHT22;4934;50.852;8.098;2022-07-03T14:57:24;30.00;80.20
9790;DHT22;4934;50.852;8.098;2022-07-03T15:05:07;29.70;77.70
9790;DHT22;4934;50.852;8.098;2022-07-03T15:10:22;30.30;74.80
9790;DHT22;4934;50.852;8.098;2022-07-03T15:12:53;30.00;72.80
9790;DHT22;4934;50.852;8.098;2022-07-03T15:15:20;29.90;76.40
9790;DHT22;4934;50.852;8.098;2022-07-03T15:17:51;29.80;77.50
9790;DHT22;4934;50.852;8.098;2022-07-03T15:20:17;29.50;75.40
9790;DHT22;4934;50.852;8.098;2022-07-03T15:22:45;29.20;76.10
9790;DHT22;4934;50.852;8.098;2022-07-03T15:25:13;28.80;75.80
9790;DHT22;4934;50.852;8.098;2022-07-03T15:27:39;29.10;75.10
9790;DHT22;4934;50.852;8.098;2022-07-03T15:30:08;29.10;75.90
9790;DHT22;4934;50.852;8.098;2022-07-03T15:32:35;28.70;76.70
9790;DHT22;4934;50.852;8.098;2022-07-03T15:35:01;28.50;79.70
9790;DHT22;4934;50.852;8.098;2022-07-03T15:43:34;28.70;77.60
9790;DHT22;4934;50.852;8.098;2022-07-03T15:54:09;28.00;81.20
9790;DHT22;4934;50.852;8.098;2022-07-03T15:56:37;27.40;81.40
9790;DHT22;4934;50.852;8.098;2022-07-03T15:59:12;27.70;83.50
9790;DHT22;4934;50.852;8.098;2022-07-03T16:01:52;27.90;82.40
9790;DHT22;4934;50.852;8.098;2022-07-03T16:07:11;27.90;82.80
9790;DHT22;4934;50.852;8.098;2022-07-03T16:09:39;27.90;83.20
9790;DHT22;4934;50.852;8.098;2022-07-03T16:12:06;27.70;82.60
9790;DHT22;4934;50.852;8.098;2022-07-03T16:14:36;27.90;84.40
9790;DHT22;4934;50.852;8.098;2022-07-03T16:17:02;28.00;83.80
9790;DHT22;4934;50.852;8.098;2022-07-03T16:19:32;27.90;82.60
9790;DHT22;4934;50.852;8.098;2022-07-03T16:22:00;27.90;84.60
9790;DHT22;4934;50.852;8.098;2022-07-03T16:24:27;26.90;85.90
9790;DHT22;4934;50.852;8.098;2022-07-03T16:26:54;26.50;87.90
9790;DHT22;4934;50.852;8.098;2022-07-03T16:29:20;26.50;88.50
9790;DHT22;4934;50.852;8.098;2022-07-03T16:31:48;26.30;88.80
9790;DHT22;4934;50.852;8.098;2022-07-03T16:34:50;26.50;88.90
9790;DHT22;4934;50.852;8.098;2022-07-03T16:37:25;26.60;87.90
9790;DHT22;4934;50.852;8.098;2022-07-03T16:40:00;26.20;89.30
9790;DHT22;4934;50.852;8.098;2022-07-03T16:42:29;26.30;89.80
9790;DHT22;4934;50.852;8.098;2022-07-03T16:45:07;26.20;90.70
9790;DHT22;4934;50.852;8.098;2022-07-03T16:47:45;25.90;90.40
9790;DHT22;4934;50.852;8.098;2022-07-03T16:50:19;26.30;91.30
9790;DHT22;4934;50.852;8.098;2022-07-03T16:52:50;26.60;91.10
9790;DHT22;4934;50.852;8.098;2022-07-03T16:55:17;26.00;90.60
9790;DHT22;4934;50.852;8.098;2022-07-03T16:57:52;25.20;91.60
9790;DHT22;4934;50.852;8.098;2022-07-03T17:00:24;25.30;92.10
9790;DHT22;4934;50.852;8.098;2022-07-03T17:02:51;24.70;92.60
9790;DHT22;4934;50.852;8.098;2022-07-03T17:05:19;24.60;92.40
9790;DHT22;4934;50.852;8.098;2022-07-03T17:07:47;24.70;93.00
9790;DHT22;4934;50.852;8.098;2022-07-03T17:10:15;24.80;92.50
9790;DHT22;4934;50.852;8.098;2022-07-03T17:12:42;24.80;92.60
9790;DHT22;4934;50.852;8.098;2022-07-03T17:15:10;24.70;93.10
9790;DHT22;4934;50.852;8.098;2022-07-03T17:17:36;24.80;92.90
9790;DHT22;4934;50.852;8.098;2022-07-03T17:20:06;24.60;92.70
9790;DHT22;4934;50.852;8.098;2022-07-03T17:22:37;24.80;93.00
9790;DHT22;4934;50.852;8.098;2022-07-03T17:25:12;25.20;93.30
9790;DHT22;4934;50.852;8.098;2022-07-03T17:27:39;25.50;92.90
9790;DHT22;4934;50.852;8.098;2022-07-03T17:30:07;25.00;93.20
9790;DHT22;4934;50.852;8.098;2022-07-03T17:32:40;25.00;93.20
9790;DHT22;4934;50.852;8.098;2022-07-03T17:35:29;25.30;93.10
9790;DHT22;4934;50.852;8.098;2022-07-03T17:37:56;25.30;92.90
9790;DHT22;4934;50.852;8.098;2022-07-03T17:40:22;25.60;93.40
9790;DHT22;4934;50.852;8.098;2022-07-03T17:42:48;26.10;92.20
9790;DHT22;4934;50.852;8.098;2022-07-03T17:45:14;26.60;92.00
9790;DHT22;4934;50.852;8.098;2022-07-03T17:47:41;26.70;91.30
9790;DHT22;4934;50.852;8.098;2022-07-03T17:50:08;26.60;91.80
9790;DHT22;4934;50.852;8.098;2022-07-03T17:52:35;26.50;91.90
9790;DHT22;4934;50.852;8.098;2022-07-03T17:55:04;26.50;91.80
9790;DHT22;4934;50.852;8.098;2022-07-03T17:57:31;26.50;92.00
9790;DHT22;4934;50.852;8.098;2022-07-03T18:00:05;26.70;91.90
9790;DHT22;4934;50.852;8.098;2022-07-03T18:02:31;26.80;90.80
9790;DHT22;4934;50.852;8.098;2022-07-03T18:04:57;26.10;91.70
9790;DHT22;4934;50.852;8.098;2022-07-03T18:07:49;25.60;92.40